Time;durP1;ratioP1;P1;durP2;ratioP2;P2;SDS_P1;SDS_P2;PMS_P1;PMS_P2;Temp;Humidity;BMP_temperature;BMP_pressure;BME280_temperature;BME280_humidity;BME280_pressure;Samples;Min_cycle;Max_cycle;Signal;HPM_P1;HPM_P2
2023/04/14 00:01:15;;;;;;;13.83;8.83;;;;;;;12.76;59.35;93731.91;5004129;28;20258;-82
2023/04/14 00:03:42;;;;;;;16.87;8.47;;;;;;;12.79;59.55;93741.81;5007057;28;20228;-83
2023/04/14 00:06:08;;;;;;;16.97;8.40;;;;;;;12.77;59.53;93733.47;5000200;28;20203;-82
2023/04/14 00:08:35;;;;;;;15.47;9.90;;;;;;;12.74;60.20;93726.97;5003317;28;20235;-82
2023/04/14 00:11:02;;;;;;;14.73;9.43;;;;;;;12.83;60.64;93729.88;5000178;28;20197;-82
2023/04/14 00:13:30;;;;;;;16.67;8.63;;;;;;;12.88;59.65;93728.06;4992121;28;20196;-83
2023/04/14 00:15:57;;;;;;;18.83;9.43;;;;;;;12.86;59.34;93718.94;4991527;28;20291;-82
2023/04/14 00:18:24;;;;;;;15.10;8.50;;;;;;;12.88;60.35;93729.88;4996989;28;20196;-83
2023/04/14 00:20:52;;;;;;;18.83;9.00;;;;;;;12.92;60.64;93723.13;5003363;28;20210;-83
2023/04/14 00:23:19;;;;;;;14.23;9.17;;;;;;;12.85;60.49;93714.75;5002772;28;20212;-83
2023/04/14 00:25:46;;;;;;;14.37;8.17;;;;;;;12.89;61.44;93726.25;5010409;28;20195;-83
2023/04/14 00:28:13;;;;;;;16.73;9.20;;;;;;;12.91;61.83;93722.34;5005795;28;20210;-81
2023/04/14 00:30:41;;;;;;;18.23;9.63;;;;;;;12.88;61.57;93722.06;5001686;28;20203;-82
2023/04/14 00:33:08;;;;;;;16.23;9.30;;;;;;;12.84;60.92;93726.22;5008020;28;20670;-81
2023/04/14 00:35:36;;;;;;;18.60;10.37;;;;;;;12.89;61.45;93723.63;5006709;28;20230;-81
2023/04/14 00:38:02;;;;;;;17.17;10.17;;;;;;;12.86;61.76;93716.31;5003982;28;20773;-82
2023/04/14 00:40:30;;;;;;;15.33;9.70;;;;;;;12.86;62.33;93716.31;5003809;28;20207;-81
2023/04/14 00:42:56;;;;;;;20.47;11.03;;;;;;;12.82;61.69;93710.81;5005283;28;20224;-81
2023/04/14 00:45:26;;;;;;;20.23;11.10;;;;;;;12.78;61.43;93701.16;5010522;28;20203;-81
2023/04/14 00:47:55;;;;;;;18.70;9.90;;;;;;;12.81;62.06;93708.47;5004807;28;20265;-81
2023/04/14 00:50:22;;;;;;;15.70;9.60;;;;;;;12.83;62.05;93720.22;4990935;28;20210;-77
2023/04/14 00:52:52;;;;;;;19.37;9.83;;;;;;;12.78;62.47;93711.59;4989727;28;20196;-78
2023/04/14 00:55:20;;;;;;;22.17;10.63;;;;;;;12.73;63.31;93714.94;4994579;28;20200;-78
2023/04/14 00:57:47;;;;;;;20.40;11.10;;;;;;;12.74;62.35;93698.28;4990318;28;20203;-78
2023/04/14 01:00:14;;;;;;;23.07;10.87;;;;;;;12.79;62.11;93705.31;5004358;28;20204;-82
2023/04/14 01:02:41;;;;;;;23.00;11.77;;;;;;;12.85;62.31;93699.09;5003239;28;20244;-81
2023/04/14 01:05:10;;;;;;;15.97;9.17;;;;;;;12.84;62.03;93706.13;5002317;28;20200;-80
2023/04/14 01:07:37;;;;;;;16.90;9.17;;;;;;;12.75;61.38;93707.69;4996010;28;20294;-81
2023/04/14 01:10:06;;;;;;;17.30;9.20;;;;;;;12.73;61.53;93703.72;4999631;28;20211;-81
2023/04/14 01:12:56;;;;;;;13.47;8.20;;;;;;;12.70;61.56;93701.66;5001002;28;20206;-81
2023/04/14 01:15:30;;;;;;;14.67;8.87;;;;;;;12.65;62.40;93699.00;5004012;28;20686;-81
2023/04/14 01:18:03;;;;;;;18.20;8.90;;;;;;;12.70;62.41;93704.25;5009087;28;20626;-81
2023/04/14 01:20:35;;;;;;;12.73;8.07;;;;;;;12.72;62.10;93708.19;5003700;28;20203;-81
2023/04/14 01:23:06;;;;;;;20.37;9.93;;;;;;;12.65;62.65;93691.19;4994222;28;20223;-82
2023/04/14 01:26:14;;;;;;;17.60;9.40;;;;;;;12.73;62.84;93688.88;4993737;28;21112;-82
2023/04/14 01:28:57;;;;;;;22.67;11.73;;;;;;;12.62;63.50;93691.69;4999544;28;20207;-81
2023/04/14 01:31:27;;;;;;;18.93;9.43;;;;;;;12.62;63.91;93692.47;5009782;28;20677;-81
2023/04/14 01:33:59;;;;;;;19.53;10.43;;;;;;;12.68;63.92;93693.28;5003385;28;20196;-80
2023/04/14 01:36:34;;;;;;;22.43;11.13;;;;;;;12.59;63.82;93684.38;5002952;28;20195;-81
2023/04/14 01:39:05;;;;;;;20.97;11.53;;;;;;;12.65;64.68;93685.97;5003524;28;20198;-80
2023/04/14 01:41:34;;;;;;;21.50;12.30;;;;;;;12.64;65.05;93690.41;5010473;28;20218;-82
2023/04/14 01:44:03;;;;;;;20.90;12.50;;;;;;;12.70;64.24;93689.38;5006184;28;20251;-82
2023/04/14 01:46:34;;;;;;;20.17;11.37;;;;;;;12.67;64.27;93696.94;5006287;28;20204;-80
2023/04/14 01:49:01;;;;;;;19.80;10.53;;;;;;;12.58;64.76;93688.03;5003692;28;20188;-78
2023/04/14 01:51:29;;;;;;;15.93;8.97;;;;;;;12.63;64.80;93688.06;4996892;28;20211;-82
2023/04/14 01:53:57;;;;;;;19.53;8.87;;;;;;;12.55;64.84;93678.13;5001376;28;20215;-82
2023/04/14 01:56:25;;;;;;;18.33;8.73;;;;;;;12.54;65.10;93674.72;5008148;28;20200;-80
2023/04/14 01:58:55;;;;;;;12.13;6.63;;;;;;;12.63;65.26;93677.63;4993095;28;20211;-76
2023/04/14 02:01:22;;;;;;;10.27;6.60;;;;;;;12.63;63.93;93683.63;4989438;28;20223;-80
2023/04/14 02:03:51;;;;;;;12.63;6.03;;;;;;;12.50;63.65;93691.91;4998674;28;20295;-81
2023/04/14 02:06:20;;;;;;;12.60;6.70;;;;;;;12.48;64.41;93696.59;4989288;28;20199;-78
2023/04/14 02:08:48;;;;;;;13.50;8.23;;;;;;;12.44;64.37;93700.72;4991455;28;20575;-78
2023/04/14 02:11:18;;;;;;;14.37;7.87;;;;;;;12.23;65.73;93696.44;4989196;28;20575;-78
2023/04/14 02:13:46;;;;;;;13.00;7.33;;;;;;;12.19;66.68;93690.16;4987900;28;20247;-78
2023/04/14 02:16:14;;;;;;;9.87;6.93;;;;;;;12.23;66.90;93699.84;4988595;28;20211;-78
2023/04/14 02:18:41;;;;;;;10.13;6.53;;;;;;;12.16;65.77;93673.22;4986490;28;20200;-78
2023/04/14 02:21:12;;;;;;;13.83;7.07;;;;;;;12.29;65.83;93693.63;4989531;28;20622;-78
2023/04/14 02:23:38;;;;;;;9.03;6.47;;;;;;;12.31;66.41;93688.94;4988507;28;20740;-77
2023/04/14 02:26:12;;;;;;;12.40;6.50;;;;;;;12.29;65.90;93696.22;4988974;28;20200;-76
2023/04/14 02:28:46;;;;;;;8.33;5.53;;;;;;;12.29;66.35;93701.44;4991252;28;20219;-76
2023/04/14 02:31:19;;;;;;;10.30;5.73;;;;;;;12.28;66.86;93701.69;4987042;28;20207;-77
2023/04/14 02:33:48;;;;;;;14.57;6.50;;;;;;;12.20;66.68;93668.28;4988371;28;20189;-77
2023/04/14 02:36:20;;;;;;;10.37;6.27;;;;;;;12.35;67.41;93682.16;4986823;28;20200;-78
2023/04/14 02:38:52;;;;;;;8.83;5.43;;;;;;;12.35;67.04;93690.00;4986360;28;20220;-78
2023/04/14 02:41:24;;;;;;;8.93;5.17;;;;;;;12.35;66.18;93679.56;4988140;28;20247;-77
2023/04/14 02:44:00;;;;;;;11.70;5.63;;;;;;;12.46;65.50;93688.25;4986021;28;20244;-77
2023/04/14 02:46:29;;;;;;;8.80;5.17;;;;;;;12.48;65.44;93691.38;4987857;28;20212;-78
2023/04/14 02:48:58;;;;;;;8.83;5.00;;;;;;;12.43;65.55;93673.13;4987754;28;20192;-78
2023/04/14 02:51:28;;;;;;;11.00;5.40;;;;;;;12.43;65.95;93686.16;4988644;28;20204;-80
2023/04/14 02:53:55;;;;;;;11.37;6.00;;;;;;;12.25;66.13;93665.72;4989084;28;20670;-79
2023/04/14 02:56:22;;;;;;;11.13;6.30;;;;;;;12.16;66.71;93672.44;4993563;28;20550;-78
2023/04/14 02:58:49;;;;;;;13.90;6.73;;;;;;;12.11;66.66;93662.78;4990509;28;20203;-78
2023/04/14 03:01:18;;;;;;;15.70;5.60;;;;;;;12.06;67.33;93657.53;4995813;28;20255;-78
2023/04/14 03:03:46;;;;;;;10.07;6.07;;;;;;;12.05;67.92;93653.38;4991080;28;20794;-79
2023/04/14 03:06:15;;;;;;;10.57;5.73;;;;;;;12.02;68.09;93648.66;4992392;28;20638;-78
2023/04/14 03:08:44;;;;;;;13.70;5.30;;;;;;;11.97;67.77;93661.66;4990123;28;20734;-78
2023/04/14 03:11:13;;;;;;;18.60;5.60;;;;;;;12.00;67.89;93674.16;4996409;28;20258;-80
2023/04/14 03:13:42;;;;;;;12.43;5.33;;;;;;;11.92;67.95;93664.97;5008162;28;20207;-81
2023/04/14 03:16:10;;;;;;;12.37;5.93;;;;;;;11.91;68.48;93660.03;5007922;28;20258;-81
2023/04/14 03:18:38;;;;;;;14.33;6.57;;;;;;;11.86;69.13;93639.94;5002379;28;20203;-82
2023/04/14 03:21:06;;;;;;;13.07;6.17;;;;;;;11.87;69.34;93658.97;5007458;28;20641;-82
2023/04/14 03:23:33;;;;;;;7.70;5.70;;;;;;;11.87;69.66;93671.97;4999405;28;20958;-82
2023/04/14 03:26:03;;;;;;;11.77;6.20;;;;;;;11.79;69.44;93672.44;5001422;28;20210;-80
2023/04/14 03:28:33;;;;;;;15.90;6.20;;;;;;;11.73;69.37;93660.41;5002338;28;20287;-82
2023/04/14 03:31:02;;;;;;;15.77;6.20;;;;;;;11.74;70.16;93654.19;5002051;28;20214;-81
2023/04/14 03:33:32;;;;;;;12.03;6.23;;;;;;;11.73;70.43;93631.78;4996707;28;20250;-81
2023/04/14 03:36:00;;;;;;;11.00;6.03;;;;;;;11.74;70.34;93621.16;5001514;28;20223;-82
2023/04/14 03:38:28;;;;;;;11.20;6.07;;;;;;;11.81;70.38;93611.28;5000648;28;20585;-81
2023/04/14 03:40:58;;;;;;;11.13;5.90;;;;;;;11.97;70.57;93617.38;4992749;28;20223;-82
2023/04/14 03:43:28;;;;;;;15.27;6.70;;;;;;;11.99;69.45;93593.69;4999183;28;20247;-82
2023/04/14 03:45:55;;;;;;;15.17;7.20;;;;;;;12.01;70.60;93596.81;4993978;28;20199;-81
2023/04/14 03:48:28;;;;;;;12.33;6.33;;;;;;;12.00;70.55;93600.47;5000207;28;20275;-83
2023/04/14 03:50:57;;;;;;;14.23;5.90;;;;;;;11.95;70.73;93586.38;4994139;28;20204;-82
2023/04/14 03:53:26;;;;;;;11.67;5.87;;;;;;;11.97;71.01;93598.38;5005795;28;20209;-82
2023/04/14 03:55:57;;;;;;;11.07;6.47;;;;;;;11.93;70.36;93598.06;5002983;28;20281;-83
2023/04/14 03:58:27;;;;;;;9.33;6.17;;;;;;;12.00;69.37;93596.06;5005316;28;20196;-83
2023/04/14 04:00:54;;;;;;;11.10;6.00;;;;;;;11.95;70.47;93591.59;5001343;28;20203;-83
2023/04/14 04:03:22;;;;;;;12.77;5.90;;;;;;;11.80;70.89;93580.31;4991740;28;20247;-77
2023/04/14 04:05:50;;;;;;;12.73;5.87;;;;;;;11.94;70.35;93597.06;4991856;28;20196;-78
2023/04/14 04:08:19;;;;;;;10.53;6.00;;;;;;;11.86;70.61;93593.09;4991037;28;20287;-78
2023/04/14 04:10:48;;;;;;;13.50;6.20;;;;;;;11.89;70.57;93604.81;4995742;28;20283;-79
2023/04/14 04:13:17;;;;;;;10.93;6.20;;;;;;;11.84;70.46;93600.38;4996196;28;20224;-82
2023/04/14 04:15:47;;;;;;;11.23;6.07;;;;;;;11.78;70.74;93582.38;5001002;28;20211;-82
2023/04/14 04:18:17;;;;;;;16.07;7.47;;;;;;;11.91;71.48;93587.16;4997277;28;20219;-83
2023/04/14 04:20:46;;;;;;;12.53;6.50;;;;;;;11.96;71.19;93584.56;5003775;28;20215;-82
2023/04/14 04:23:14;;;;;;;15.40;7.27;;;;;;;11.97;71.45;93593.94;5004133;28;20191;-82
2023/04/14 04:25:41;;;;;;;18.03;7.93;;;;;;;12.00;71.94;93593.44;5004761;28;20199;-82
2023/04/14 04:28:09;;;;;;;18.17;8.27;;;;;;;11.97;72.22;93609.56;4992686;28;20207;-83
2023/04/14 04:30:39;;;;;;;23.30;10.07;;;;;;;11.95;71.56;93624.63;5009811;28;20211;-83
2023/04/14 04:33:08;;;;;;;21.33;10.13;;;;;;;11.81;71.99;93626.91;4991706;28;21008;-78
2023/04/14 04:35:36;;;;;;;24.40;10.67;;;;;;;11.83;71.59;93634.47;4997027;28;20231;-78
2023/04/14 04:38:04;;;;;;;25.93;13.37;;;;;;;11.79;71.72;93636.00;4991516;28;20212;-78
2023/04/14 04:40:36;;;;;;;22.90;14.40;;;;;;;11.66;72.16;93631.22;4991845;28;20203;-79
2023/04/14 04:43:03;;;;;;;25.10;12.57;;;;;;;11.79;72.10;93647.22;4989493;28;20204;-78
2023/04/14 04:45:49;;;;;;;15.07;9.97;;;;;;;11.79;71.83;93649.81;4990460;28;20224;-77
2023/04/14 04:48:17;;;;;;;18.73;9.17;;;;;;;11.78;71.15;93645.63;4987798;28;20224;-78
2023/04/14 04:50:45;;;;;;;16.70;8.97;;;;;;;11.84;71.67;93630.81;4989142;28;20272;-78
2023/04/14 04:53:12;;;;;;;17.23;10.90;;;;;;;11.87;71.88;93617.31;4990209;28;20582;-78
2023/04/14 04:55:40;;;;;;;16.30;10.50;;;;;;;11.88;71.61;93604.06;4990113;28;20192;-78
2023/04/14 04:58:07;;;;;;;17.63;10.67;;;;;;;11.90;71.43;93611.59;4996318;28;20204;-78
2023/04/14 05:00:34;;;;;;;19.83;10.70;;;;;;;11.82;72.08;93599.84;4989530;28;20204;-78
2023/04/14 05:03:01;;;;;;;19.63;10.23;;;;;;;11.82;71.91;93597.25;4991129;28;20231;-79
2023/04/14 05:05:29;;;;;;;17.40;10.10;;;;;;;11.89;71.64;93597.00;4990363;28;20220;-79
2023/04/14 05:07:56;;;;;;;13.67;9.20;;;;;;;11.98;71.00;93592.13;4989305;28;20283;-79
2023/04/14 05:10:23;;;;;;;15.30;9.70;;;;;;;12.04;71.07;93591.09;4987714;28;20663;-79
2023/04/14 05:12:50;;;;;;;22.77;11.20;;;;;;;12.13;70.89;93605.22;4994729;28;20298;-79
2023/04/14 05:15:19;;;;;;;22.30;11.00;;;;;;;12.08;70.72;93587.75;4994952;28;20194;-79
2023/04/14 05:17:46;;;;;;;16.33;10.97;;;;;;;12.22;70.25;93616.72;4991106;28;20192;-80
2023/04/14 05:20:13;;;;;;;21.87;11.17;;;;;;;12.12;70.67;93607.03;4993458;28;20203;-79
2023/04/14 05:22:41;;;;;;;18.80;11.20;;;;;;;12.04;71.33;93599.69;4997913;28;20207;-79
2023/04/14 05:25:09;;;;;;;19.17;10.47;;;;;;;12.09;72.23;93571.06;4994351;28;20730;-80
2023/04/14 05:27:36;;;;;;;21.77;10.60;;;;;;;12.10;72.39;93590.88;4996925;28;20254;-80
2023/04/14 05:30:03;;;;;;;18.27;11.30;;;;;;;12.16;71.92;93578.66;4991879;28;20299;-80
2023/04/14 05:32:30;;;;;;;25.43;10.67;;;;;;;12.22;71.31;93578.44;4994981;28;20192;-79
2023/04/14 05:34:57;;;;;;;20.60;10.20;;;;;;;12.32;70.96;93551.66;4997465;28;20204;-80
2023/04/14 05:37:24;;;;;;;19.07;9.43;;;;;;;12.43;70.67;93566.28;4994322;28;20206;-79
2023/04/14 05:39:53;;;;;;;14.53;8.73;;;;;;;12.42;69.56;93557.69;4992106;28;20200;-79
2023/04/14 05:42:20;;;;;;;18.07;8.70;;;;;;;12.43;69.64;93559.25;4990703;28;20282;-80
2023/04/14 05:44:47;;;;;;;21.93;9.37;;;;;;;12.38;69.23;93537.63;4993049;28;20227;-80
2023/04/14 05:47:13;;;;;;;12.37;8.63;;;;;;;12.51;69.01;93542.31;4990265;28;20724;-79
2023/04/14 05:49:40;;;;;;;14.73;8.10;;;;;;;12.64;69.45;93548.88;4995726;28;20198;-80
2023/04/14 05:52:07;;;;;;;15.70;8.10;;;;;;;12.74;68.62;93543.69;4990288;28;20266;-79
2023/04/14 05:54:34;;;;;;;15.63;7.60;;;;;;;12.89;67.77;93556.75;4990715;28;20263;-79
2023/04/14 05:57:02;;;;;;;14.47;7.67;;;;;;;12.95;67.12;93543.47;4994575;28;20677;-79
2023/04/14 05:59:30;;;;;;;14.40;7.60;;;;;;;13.01;66.54;93547.66;4989810;28;20689;-79
2023/04/14 06:01:57;;;;;;;13.53;6.70;;;;;;;13.06;66.80;93552.84;4988687;28;20223;-80
2023/04/14 06:04:24;;;;;;;12.40;5.83;;;;;;;13.09;64.82;93543.75;4988717;28;20579;-78
2023/04/14 06:06:51;;;;;;;12.10;6.03;;;;;;;13.15;64.69;93536.72;4988917;28;20282;-79
2023/04/14 06:09:18;;;;;;;14.27;5.40;;;;;;;13.17;64.91;93539.84;4990296;28;20204;-78
2023/04/14 06:11:45;;;;;;;9.50;5.53;;;;;;;13.30;65.28;93511.41;4992626;28;20222;-79
2023/04/14 06:14:13;;;;;;;9.40;5.63;;;;;;;13.37;64.00;93522.34;4993747;28;20192;-78
2023/04/14 06:16:40;;;;;;;9.00;5.03;;;;;;;13.38;64.69;93517.91;4991370;28;20204;-80
2023/04/14 06:19:06;;;;;;;12.00;5.00;;;;;;;13.38;63.82;93489.22;4989033;28;20207;-79
2023/04/14 06:21:33;;;;;;;7.80;5.50;;;;;;;13.41;62.99;93505.13;4992993;28;20753;-78
2023/04/14 06:24:00;;;;;;;8.13;5.20;;;;;;;13.44;62.92;93486.34;4991849;28;20211;-80
2023/04/14 06:26:27;;;;;;;9.53;5.37;;;;;;;13.52;61.85;93503.28;4992202;28;20207;-78
2023/04/14 06:28:56;;;;;;;6.03;4.37;;;;;;;13.52;61.93;93485.78;4993217;28;20200;-81
2023/04/14 06:31:24;;;;;;;9.03;4.77;;;;;;;13.55;62.50;93492.31;4995038;28;20296;-80
2023/04/14 06:33:51;;;;;;;9.70;5.13;;;;;;;13.64;61.35;93468.03;4994713;28;20207;-81
2023/04/14 06:36:18;;;;;;;8.60;4.90;;;;;;;13.71;61.24;93465.09;5002835;28;20196;-82
2023/04/14 06:38:45;;;;;;;13.20;5.10;;;;;;;13.84;61.34;93461.16;5008311;28;20642;-83
2023/04/14 06:41:12;;;;;;;11.27;4.83;;;;;;;13.94;60.60;93458.53;5000630;28;20196;-79
2023/04/14 06:43:39;;;;;;;7.20;4.50;;;;;;;14.01;60.58;93457.16;4997328;28;20589;-78
2023/04/14 06:46:06;;;;;;;10.57;4.53;;;;;;;14.10;60.42;93455.56;4995595;28;20816;-78
2023/04/14 06:48:35;;;;;;;9.50;4.67;;;;;;;14.11;58.61;93440.69;4996741;28;20254;-79
2023/04/14 06:51:02;;;;;;;9.03;4.70;;;;;;;14.23;57.73;93427.28;5004780;28;20195;-78
2023/04/14 06:53:29;;;;;;;8.43;5.00;;;;;;;14.23;58.27;93410.53;4991502;28;20206;-77
2023/04/14 06:55:59;;;;;;;7.90;4.97;;;;;;;14.21;58.51;93401.41;4992105;28;20643;-79
2023/04/14 06:58:27;;;;;;;8.13;4.80;;;;;;;14.28;59.00;93417.59;4992900;28;20215;-81
2023/04/14 07:00:56;;;;;;;9.27;4.60;;;;;;;14.39;59.12;93413.88;5001486;28;20215;-80
2023/04/14 07:03:23;;;;;;;8.73;4.60;;;;;;;14.49;58.15;93405.16;4997506;28;20338;-82
2023/04/14 07:06:01;;;;;;;7.07;4.40;;;;;;;14.61;58.36;93422.09;4998058;28;20227;-83
2023/04/14 07:08:30;;;;;;;8.50;4.87;;;;;;;14.64;58.98;93397.22;5006128;28;20195;-81
2023/04/14 07:11:00;;;;;;;6.23;4.67;;;;;;;14.71;57.98;93413.41;5003083;28;20283;-79
2023/04/14 07:13:27;;;;;;;10.83;4.40;;;;;;;14.90;57.62;93421.34;4998100;28;20282;-78
2023/04/14 07:15:54;;;;;;;11.17;4.47;;;;;;;15.01;58.05;93410.50;4994276;28;20200;-79
2023/04/14 07:18:21;;;;;;;7.33;4.03;;;;;;;15.07;57.89;93416.47;4995594;28;20211;-79
2023/04/14 07:20:52;;;;;;;7.87;4.00;;;;;;;15.17;57.90;93408.53;4991667;28;20200;-77
2023/04/14 07:23:20;;;;;;;7.23;4.23;;;;;;;15.20;57.20;93400.94;4978034;28;20203;-78
2023/04/14 07:25:51;;;;;;;7.27;4.00;;;;;;;15.39;56.85;93416.69;4991060;28;20227;-77
2023/04/14 07:28:18;;;;;;;10.57;4.27;;;;;;;15.48;55.86;93409.81;4992514;28;20223;-78
2023/04/14 07:30:45;;;;;;;8.13;4.20;;;;;;;15.54;55.48;93418.41;4994940;28;20210;-80
2023/04/14 07:33:13;;;;;;;11.23;4.53;;;;;;;15.64;55.09;93413.06;4989071;28;20220;-79
2023/04/14 07:35:40;;;;;;;10.17;4.07;;;;;;;15.71;53.77;93406.41;4995864;28;20283;-82
2023/04/14 07:38:08;;;;;;;7.90;4.20;;;;;;;15.80;55.86;93401.34;4994438;28;20208;-82
2023/04/14 07:40:35;;;;;;;8.27;3.90;;;;;;;15.97;57.59;93399.03;5004632;28;20659;-84
2023/04/14 07:43:03;;;;;;;8.27;3.90;;;;;;;16.05;55.62;93393.16;5001832;28;20287;-85
2023/04/14 07:45:30;;;;;;;9.07;3.80;;;;;;;16.02;54.36;93377.22;5005097;28;20220;-84
2023/04/14 07:47:57;;;;;;;8.10;3.60;;;;;;;16.17;54.11;93395.34;4998107;28;20234;-84
2023/04/14 07:50:25;;;;;;;5.80;3.87;;;;;;;16.28;57.65;93409.88;4997351;28;20230;-83
2023/04/14 07:52:52;;;;;;;11.33;3.63;;;;;;;16.37;54.05;93392.44;5005801;28;20208;-84
2023/04/14 07:55:20;;;;;;;7.07;3.70;;;;;;;16.43;56.28;93370.34;4989430;28;20246;-78
2023/04/14 07:57:47;;;;;;;6.67;3.80;;;;;;;16.55;53.24;93375.97;4990474;28;20303;-79
2023/04/14 08:00:15;;;;;;;9.50;4.10;;;;;;;16.69;51.86;93382.03;4993923;28;20266;-78
2023/04/14 08:02:42;;;;;;;12.03;4.10;;;;;;;16.81;52.96;93385.00;4985225;28;20224;-79
2023/04/14 08:05:09;;;;;;;7.43;3.57;;;;;;;16.90;55.66;93375.41;4989287;28;20216;-79
2023/04/14 08:07:36;;;;;;;10.43;4.30;;;;;;;17.00;53.27;93350.81;4988809;28;20243;-79
2023/04/14 08:10:03;;;;;;;15.40;4.07;;;;;;;17.26;55.45;93377.38;4991714;28;20571;-79
2023/04/14 08:12:31;;;;;;;10.53;3.90;;;;;;;17.34;50.80;93364.38;4989347;28;20302;-79
2023/04/14 08:14:58;;;;;;;8.80;3.90;;;;;;;17.56;54.78;93371.63;4989122;28;20208;-79
2023/04/14 08:17:25;;;;;;;6.63;3.55;;;;;;;17.54;54.63;93364.03;4990629;28;20211;-80
2023/04/14 08:19:52;;;;;;;9.97;3.43;;;;;;;17.76;54.36;93363.34;4989481;28;20204;-80
2023/04/14 08:22:18;;;;;;;14.07;4.35;;;;;;;17.87;48.05;93372.56;4990483;28;20204;-79
2023/04/14 08:24:45;;;;;;;10.82;3.95;;;;;;;17.91;48.39;93357.78;4995494;28;20199;-82
2023/04/14 08:27:12;;;;;;;12.70;4.15;;;;;;;17.99;47.12;93398.34;5002419;28;20203;-82
2023/04/14 08:29:40;;;;;;;11.20;3.53;;;;;;;18.06;49.05;93367.97;4991577;28;20631;-80
2023/04/14 08:32:07;;;;;;;9.38;3.72;;;;;;;18.20;47.41;93378.47;4996480;28;20200;-83
2023/04/14 08:34:34;;;;;;;14.38;3.80;;;;;;;18.26;47.84;93377.28;4997451;28;20215;-85
2023/04/14 08:37:02;;;;;;;10.15;3.47;;;;;;;18.40;46.47;93387.75;4993768;28;20208;-83
2023/04/14 08:39:29;;;;;;;15.80;3.42;;;;;;;18.45;46.36;93409.47;4989830;28;20251;-82
2023/04/14 08:41:56;;;;;;;17.80;3.85;;;;;;;18.61;46.99;93388.88;5003860;28;20196;-82
2023/04/14 08:44:23;;;;;;;9.85;3.75;;;;;;;18.70;45.87;93372.06;4990028;28;20192;-83
2023/04/14 08:46:52;;;;;;;11.95;4.10;;;;;;;18.75;50.58;93381.72;4998962;28;20211;-85
2023/04/14 08:49:32;;;;;;;14.02;3.85;;;;;;;18.89;44.62;93427.19;4998941;28;20196;-84
2023/04/14 08:52:01;;;;;;;15.38;4.55;;;;;;;18.98;41.38;93435.94;4992153;28;20955;-82
2023/04/14 08:54:29;;;;;;;10.48;4.20;;;;;;;19.12;44.71;93410.31;4995931;28;20204;-83
2023/04/14 08:56:58;;;;;;;12.75;3.78;;;;;;;19.28;45.12;93403.56;5000831;28;20818;-79
2023/04/14 08:59:27;;;;;;;36.63;22.55;;;;;;;19.45;39.78;93433.75;4997076;28;20279;-82
2023/04/14 09:01:58;;;;;;;21.70;3.80;;;;;;;19.66;39.53;93418.97;4998665;28;20224;-82
2023/04/14 09:04:26;;;;;;;31.10;4.38;;;;;;;19.94;36.73;93422.94;4996783;28;20266;-82
2023/04/14 09:06:56;;;;;;;21.05;4.97;;;;;;;20.14;34.87;93453.28;5001574;28;20246;-82
2023/04/14 09:09:25;;;;;;;31.73;4.65;;;;;;;20.30;32.99;93449.13;4996959;28;20211;-83
2023/04/14 09:11:53;;;;;;;29.27;4.57;;;;;;;20.26;32.79;93456.88;4993959;28;20204;-81
2023/04/14 09:14:21;;;;;;;35.40;4.60;;;;;;;20.33;33.40;93407.09;4997988;28;20283;-81
2023/04/14 09:16:52;;;;;;;20.83;4.00;;;;;;;20.54;37.66;93398.56;4998768;28;20745;-83
2023/04/14 09:19:21;;;;;;;31.02;4.93;;;;;;;20.71;35.40;93407.25;4997850;28;20219;-80
2023/04/14 09:21:48;;;;;;;38.85;4.63;;;;;;;20.76;33.69;93417.66;4994300;28;20287;-82
2023/04/14 09:24:22;;;;;;;25.92;4.13;;;;;;;20.74;33.42;93416.44;4996356;28;20204;-81
2023/04/14 09:26:49;;;;;;;30.95;4.75;;;;;;;20.60;33.71;93400.75;5000081;28;20218;-79
2023/04/14 09:29:17;;;;;;;14.80;3.33;;;;;;;20.66;33.61;93420.63;4993343;28;20584;-83
2023/04/14 09:31:44;;;;;;;21.38;3.88;;;;;;;20.61;33.64;93390.94;4999618;28;20214;-83
2023/04/14 09:34:17;;;;;;;36.72;4.93;;;;;;;20.70;33.59;93408.34;4998575;28;20615;-82
2023/04/14 09:37:09;;;;;;;24.90;3.83;;;;;;;20.70;34.71;93408.34;4998930;28;20270;-85
2023/04/14 09:39:46;;;;;;;17.02;4.03;;;;;;;20.71;33.78;93391.41;4998695;28;20208;-89
2023/04/14 09:42:13;;;;;;;25.80;4.57;;;;;;;20.83;33.40;93438.34;4996145;28;20197;-84
2023/04/14 09:44:52;;;;;;;26.70;3.60;;;;;;;20.74;33.09;93437.56;4999052;28;20207;-86
2023/04/14 09:47:21;;;;;;;19.50;4.25;;;;;;;20.84;34.36;93424.03;4997926;28;20200;-87
2023/04/14 09:49:56;;;;;;;22.08;4.43;;;;;;;20.81;33.74;93443.91;4998322;28;20586;-85
2023/04/14 09:52:36;;;;;;;34.53;4.65;;;;;;;20.75;33.94;93394.97;4992745;28;20231;-86
2023/04/14 09:55:09;;;;;;;26.83;5.00;;;;;;;20.76;33.95;93401.81;4995698;28;20872;-88
2023/04/14 09:57:37;;;;;;;29.48;4.15;;;;;;;20.85;33.74;93465.22;5001066;28;20262;-86
2023/04/14 10:00:18;;;;;;;27.23;4.72;;;;;;;21.04;33.58;93497.38;4988106;28;20294;-89
2023/04/14 10:02:49;;;;;;;20.27;4.47;;;;;;;21.13;33.42;93445.31;4994316;28;20285;-89
2023/04/14 10:05:20;;;;;;;31.13;5.35;;;;;;;21.14;33.19;93446.09;4994137;28;20210;-89
2023/04/14 10:07:48;;;;;;;20.08;4.00;;;;;;;20.97;33.79;93449.50;4993250;28;20251;-85
2023/04/14 10:10:15;;;;;;;24.40;4.70;;;;;;;21.16;34.47;93479.06;4995001;28;20204;-90
2023/04/14 10:12:43;;;;;;;15.80;3.95;;;;;;;21.11;33.97;93536.56;4999980;28;20204;-87
2023/04/14 10:15:11;;;;;;;33.63;4.43;;;;;;;21.04;34.56;93534.34;5002780;28;20204;-71
2023/04/14 10:17:38;;;;;;;23.83;4.97;;;;;;;20.74;34.91;93533.41;4990540;28;20208;-84
2023/04/14 10:20:07;;;;;;;23.83;3.92;;;;;;;20.56;34.90;93552.94;4997172;28;20671;-85
2023/04/14 10:22:34;;;;;;;23.83;4.05;;;;;;;20.57;35.66;93575.63;5004417;28;20249;-86
2023/04/14 10:25:03;;;;;;;23.38;4.57;;;;;;;20.52;35.67;93567.81;4998242;28;20215;-86
2023/04/14 10:27:32;;;;;;;14.73;4.03;;;;;;;20.61;35.82;93602.16;5007292;28;20279;-85
2023/04/14 10:30:00;;;;;;;29.70;4.60;;;;;;;20.59;36.06;93578.72;5003159;28;20208;-86
2023/04/14 10:32:33;;;;;;;44.88;5.93;;;;;;;20.86;36.85;93614.69;5005219;28;20228;-84
2023/04/14 10:35:04;;;;;;;28.55;4.68;;;;;;;20.53;39.11;93618.75;5003706;28;20582;-82
2023/04/14 10:37:32;;;;;;;24.70;4.35;;;;;;;19.97;40.92;93683.44;4999262;28;20262;-82
2023/04/14 10:40:00;;;;;;;18.17;4.18;;;;;;;19.08;44.01;93635.06;5002110;28;20223;-83
2023/04/14 10:42:31;;;;;;;11.30;3.67;;;;;;;18.35;51.82;93716.72;4995446;28;20193;-84
2023/04/14 10:45:04;;;;;;;7.32;2.67;;;;;;;17.41;53.16;93726.47;4998652;28;20661;-83
2023/04/14 10:47:32;;;;;;;8.87;3.57;;;;;;;16.69;54.38;93740.69;5005157;28;20228;-84
2023/04/14 10:50:03;;;;;;;4.67;2.37;;;;;;;16.44;55.43;93758.22;5000171;28;20578;-83
2023/04/14 10:52:33;;;;;;;5.17;2.10;;;;;;;16.17;58.06;93755.28;5003059;28;20195;-82
2023/04/14 10:55:07;;;;;;;3.37;1.83;;;;;;;15.78;59.48;93765.00;5007625;28;20283;-83
2023/04/14 10:57:42;;;;;;;4.50;1.77;;;;;;;15.58;59.52;93767.75;5000775;28;20275;-82
2023/04/14 11:00:23;;;;;;;1.80;1.10;;;;;;;15.09;57.87;93783.38;5007682;28;20206;-83
2023/04/14 11:02:58;;;;;;;3.33;1.70;;;;;;;14.82;58.22;93801.22;4995387;28;20663;-83
2023/04/14 11:05:25;;;;;;;2.37;1.63;;;;;;;14.68;57.80;93803.59;5003090;28;20286;-83
2023/04/14 11:07:57;;;;;;;2.00;1.70;;;;;;;14.67;58.44;93847.28;5002415;28;20227;-83
2023/04/14 11:10:26;;;;;;;1.40;1.17;;;;;;;14.53;57.88;93840.22;4994659;28;20274;-81
2023/04/14 11:13:02;;;;;;;2.03;1.50;;;;;;;14.46;57.93;93850.16;4989583;28;20196;-80
2023/04/14 11:15:51;;;;;;;6.20;1.50;;;;;;;14.22;58.27;93862.91;4992633;28;20235;-81
2023/04/14 11:18:31;;;;;;;2.60;1.50;;;;;;;13.88;59.71;93870.41;4992990;28;20200;-83
2023/04/14 11:21:03;;;;;;;2.63;1.70;;;;;;;13.72;59.28;93858.34;4998676;28;20207;-82
2023/04/14 11:23:30;;;;;;;1.70;1.53;;;;;;;13.64;58.95;93857.03;5000375;28;20293;-80
2023/04/14 11:25:57;;;;;;;2.77;1.70;;;;;;;13.55;57.58;93866.41;5001384;28;20222;-81
2023/04/14 11:28:30;;;;;;;2.33;1.40;;;;;;;13.46;56.02;93874.97;5002316;28;20737;-80
2023/04/14 11:31:02;;;;;;;2.57;1.43;;;;;;;13.39;55.48;93867.34;4999097;28;20196;-81
2023/04/14 11:33:30;;;;;;;2.90;1.40;;;;;;;13.30;55.81;93889.78;4997861;28;20203;-80
2023/04/14 11:35:57;;;;;;;2.00;1.50;;;;;;;13.08;57.13;93905.56;4991769;28;20231;-81